Αρχική σελίδα
METAR-TAF:

METAR-TAF

Αεροδρόμια :

Comiso, Ιταλία

γεωγραφικό πλάτος: 36-59-30N, γεωγραφικό μήκος: 14-36-25E, υψόμετρο: 190 μ

Παρών καιρός

Η αναφορά έγινε 2 ώρες και 58 λεπτά πριν, στις 20:50 UTC
Άνεμος 3 kt από Α/BA
Θερμοκρασία 25°C
Υγρασία 79%
Πίεση 1014 hPa
Ορατότητα 10 χλμ και άνω
Δεν υπάρχουν νέφη με βάση κάτω από τα 1500 μ. και δεν υπάρχουν νέφη σωρειτομελανίτες.

METAR: LICB 222050Z 06003KT CAVOK 25/21 Q1014

Χρόνος: 01:48 (23:48 UTC)

Πρόγνωση Καιρού

Η αναφορά έγινε 6 ώρες και 48 λεπτά πριν, στις 17:00 UTC
Η πρόγνωση ισχύει από τις 22 στις 18 UTC έως τις 23 στις 03 UTC
Άνεμος 6 kt από μεταβλητές κατευθύνσεις
Ορατότητα 10 χλμ και άνω
Δεν υπάρχουν νέφη με βάση κάτω από τα 1500 μ. και δεν υπάρχουν νέφη σωρειτομελανίτες.

TAF: LICB 221700Z 2218/2303 VRB06KT CAVOK

Μετεωρολογικές αναφορές και προγνώσεις για περισσότερα από 4000 αεροδρόμια (δελτία METAR και TAF).

Οι διαθέσιμοι σταθμοί απεικονίζονται στο χάρτη με κίτρινες και κόκκινες κουκκίδες.

Μετακινήστε το ποντίκι πάνω από τις κουκκίδες για να δείτε το όνομα του σταθμού.

Στη συνέχεια, κάντε κλικ για να δείτε τις μετεωρολογικές αναφορές και τις προγνώσεις καιρού.

Για να αλλάξετε το χάρτη: κάντε κλικ στα πράσινα κουμπιά με τον μαύρο σταυρό για να ζουμάρετε, στο πράσινο κουμπί με την παύλα για να αφαιρέσετε το ζουμ ή στα πράσινα βέλη για να αντιπαραβάλλετε χάρτες.


METAR-TAF: